This is the latest recevied weather packets stored in our database for station/object VE7GEL. If no packets are shown the sender has not sent any weather packets the latest 10 day(s).
| Time | Temp. | Humidity | Pressure | Rain* | Wind** | Luminosity | Snow |
|---|---|---|---|---|---|---|---|
| 1777787051 | 17.22° C | 65% | 1014.1 hPa | 0 mm | - | 0 W/m² | - |
| 1777786152 | 17.78° C | 64% | 1014.2 hPa | 0 mm | - | 0 W/m² | - |
| 1777785302 | 18.89° C | 55% | 1014.5 hPa | 0 mm | - | 0 W/m² | - |
| 1777785251 | 18.89° C | 55% | 1014.2 hPa | 0 mm | - | 0 W/m² | - |
| 1777784352 | 18.89° C | 58% | 1014.2 hPa | 0 mm | - | 0 W/m² | - |
| 1777783502 | 19.44° C | 54% | 1014.4 hPa | 0 mm | - | 0 W/m² | - |
| 1777783450 | 19.44° C | 53% | 1014 hPa | 0 mm | - | 0 W/m² | - |
| 1777782602 | 19.44° C | 48% | 1014.3 hPa | 0 mm | - | 0 W/m² | - |
| 1777782531 | 19.44° C | 48% | 1014 hPa | 0 mm | - | 0 W/m² | - |
| 1777781633 | 19.44° C | 47% | 1014 hPa | 0 mm | - | 0 W/m² | - |
| 1777780733 | 19.44° C | 48% | 1013.8 hPa | 0 mm | - | 0 W/m² | - |
| 1777779902 | 19.44° C | 50% | 1013.9 hPa | 0 mm | - | 0 W/m² | - |
| 1777779826 | 19.44° C | 50% | 1013.6 hPa | 0 mm | - | 0 W/m² | - |
| 1777778928 | 18.89° C | 52% | 1013.5 hPa | 0 mm | - | 2 W/m² | - |
| 1777778102 | 18.89° C | 52% | 1013.7 hPa | 0 mm | - | 6 W/m² | - |
| 1777778026 | 18.89° C | 52% | 1013.4 hPa | 0 mm | - | 6 W/m² | - |
| 1777777202 | 18.89° C | 53% | 1013.6 hPa | 0 mm | - | 12 W/m² | - |
| 1777777130 | 18.89° C | 53% | 1013.3 hPa | 0 mm | - | 12 W/m² | - |
| 1777776302 | 18.89° C | 53% | 1013.7 hPa | 0 mm | - | 18 W/m² | - |
| 1777776224 | 18.89° C | 53% | 1013.4 hPa | 0 mm | - | 18 W/m² | - |
| 1777775328 | 20.56° C | 51% | 1013.5 hPa | 0 mm | - | 24 W/m² | - |
| 1777774503 | 21.67° C | 48% | 1013.8 hPa | 0 mm | - | 116 W/m² | - |
| 1777774425 | 21.67° C | 48% | 1013.5 hPa | 0 mm | - | 116 W/m² | - |
| 1777773531 | 21.67° C | 47% | 1013.5 hPa | 0 mm | - | 164 W/m² | - |
| 1777772619 | 22.22° C | 46% | 1013.7 hPa | 0 mm | - | 223 W/m² | - |
* Rain latest hour (hover to see other rain measurements)
** Current wind speed in m/s (hover to see current wind gust speed)